Time;durP1;ratioP1;P1;durP2;ratioP2;P2;SDS_P1;SDS_P2;PMS_P1;PMS_P2;Temp;Humidity;BMP_temperature;BMP_pressure;BME280_temperature;BME280_humidity;BME280_pressure;Samples;Min_cycle;Max_cycle;Signal;HPM_P1;HPM_P2
2021/08/27 00:00:03;;;;;;;3.67;0.63;;;13.80;89.80;;;;;;6283210;22;20030;-78
2021/08/27 00:02:33;;;;;;;2.63;0.70;;;13.70;90.20;;;;;;6310545;22;20038;-77
2021/08/27 00:05:01;;;;;;;4.00;0.90;;;13.70;90.10;;;;;;6313802;22;20352;-77
2021/08/27 00:07:31;;;;;;;0.90;0.40;;;13.70;89.80;;;;;;6310380;22;20396;-76
2021/08/27 00:09:58;;;;;;;;;;;13.70;90.20;;;;;;6311727;22;20023;-76
2021/08/27 00:12:26;;;;;;;3.20;0.45;;;13.70;90.50;;;;;;6283126;22;19957;-77
2021/08/27 00:14:56;;;;;;;4.60;0.60;;;13.60;90.20;;;;;;6309504;22;20023;-75
2021/08/27 00:17:29;;;;;;;2.28;0.70;;;13.70;90.50;;;;;;6307927;22;20033;-77
2021/08/27 00:19:57;;;;;;;1.08;0.45;;;13.60;90.20;;;;;;6280518;22;20065;-76
2021/08/27 00:22:24;;;;;;;1.85;1.08;;;13.60;90.10;;;;;;6309935;22;20043;-75
2021/08/27 00:24:55;;;;;;;1.48;0.47;;;13.60;90.40;;;;;;6307155;22;20076;-79
2021/08/27 00:27:22;;;;;;;1.65;0.55;;;13.60;90.50;;;;;;6309234;22;20027;-76
2021/08/27 00:29:50;;;;;;;1.02;0.45;;;13.60;90.50;;;;;;6281122;22;20027;-78
2021/08/27 00:32:19;;;;;;;2.33;0.55;;;13.70;90.40;;;;;;6307272;22;20301;-77
2021/08/27 00:34:49;;;;;;;4.10;0.70;;;13.70;91.00;;;;;;6282426;22;20023;-76
2021/08/27 00:37:19;;;;;;;0.95;0.40;;;13.70;90.50;;;;;;6307711;22;20429;-76
2021/08/27 00:39:48;;;;;;;4.28;0.73;;;13.70;90.40;;;;;;6306586;22;20026;-77
2021/08/27 00:42:18;;;;;;;2.30;0.57;;;13.70;89.90;;;;;;6284080;22;20027;-76
2021/08/27 00:44:48;;;;;;;2.63;0.90;;;13.60;89.80;;;;;;6309296;22;20031;-77
2021/08/27 00:47:15;;;;;;;6.20;0.93;;;13.60;90.20;;;;;;6313412;22;20035;-76
2021/08/27 00:49:46;;;;;;;1.15;0.47;;;13.60;90.60;;;;;;6314060;22;20019;-79
2021/08/27 00:52:13;;;;;;;;;;;13.50;90.60;;;;;;6315562;22;20027;-79
2021/08/27 00:54:45;;;;;;;1.38;0.52;;;13.40;90.90;;;;;;6314564;22;19919;-78
2021/08/27 00:57:13;;;;;;;3.25;0.60;;;13.30;91.10;;;;;;6288147;22;20027;-77
2021/08/27 00:59:40;;;;;;;2.70;0.68;;;13.30;91.20;;;;;;6314123;22;20065;-76
2021/08/27 01:02:08;;;;;;;1.90;0.47;;;13.20;91.30;;;;;;6283229;22;20023;-78
2021/08/27 01:04:37;;;;;;;1.35;0.70;;;13.10;91.50;;;;;;6314387;22;20234;-77
2021/08/27 01:07:09;;;;;;;5.47;0.60;;;13.00;91.60;;;;;;6314697;22;20015;-79
2021/08/27 01:09:44;;;;;;;0.52;0.30;;;13.00;91.90;;;;;;6311812;22;20027;-75
2021/08/27 01:12:17;;;;;;;0.77;0.40;;;12.90;92.10;;;;;;6314039;22;20069;-76
2021/08/27 01:14:50;;;;;;;1.05;0.50;;;12.90;92.10;;;;;;6315325;22;20265;-78
2021/08/27 01:17:21;;;;;;;1.90;0.70;;;12.90;92.20;;;;;;6305952;22;20034;-76
2021/08/27 01:20:29;;;;;;;1.45;0.50;;;12.90;92.10;;;;;;6283871;22;20077;-78
2021/08/27 01:23:30;;;;;;;2.77;0.77;;;12.90;92.30;;;;;;2397280;22;10150036;-80
2021/08/27 01:26:01;;;;;;;3.13;0.75;;;12.90;91.80;;;;;;5004067;22;10001063;-77
2021/08/27 01:28:32;;;;;;;1.48;0.80;;;12.90;92.00;;;;;;6282857;22;20023;-78
2021/08/27 01:31:11;;;;;;;3.83;0.75;;;12.80;92.40;;;;;;6309974;22;20258;-76
2021/08/27 01:33:47;;;;;;;1.13;0.52;;;12.80;92.20;;;;;;6284950;22;20109;-77
2021/08/27 01:36:16;;;;;;;5.80;0.60;;;12.70;92.30;;;;;;6314529;22;20557;-78
2021/08/27 01:38:47;;;;;;;3.25;0.75;;;12.70;92.50;;;;;;6284792;22;20038;-77
2021/08/27 01:41:16;;;;;;;1.73;0.68;;;12.70;92.40;;;;;;6310286;22;20086;-78
2021/08/27 01:43:45;;;;;;;1.10;0.40;;;12.60;92.30;;;;;;6281462;22;20346;-78
2021/08/27 01:46:14;;;;;;;3.35;0.70;;;12.60;92.40;;;;;;6283755;22;20035;-77
2021/08/27 01:48:41;;;;;;;3.63;0.90;;;12.60;92.50;;;;;;6310128;22;20034;-77
2021/08/27 01:51:10;;;;;;;1.95;0.73;;;12.60;92.50;;;;;;6313986;22;20310;-77
2021/08/27 01:53:43;;;;;;;2.17;0.80;;;12.60;92.30;;;;;;6284211;22;20130;-77
2021/08/27 01:56:11;;;;;;;4.95;0.70;;;12.60;92.40;;;;;;6313174;22;20034;-78
2021/08/27 01:58:39;;;;;;;3.17;0.90;;;12.50;92.30;;;;;;6312428;22;20023;-79
2021/08/27 02:01:08;;;;;;;2.42;0.88;;;12.60;92.50;;;;;;6307465;22;20046;-76
2021/08/27 02:03:37;;;;;;;9.73;0.85;;;12.60;92.40;;;;;;6285685;22;20090;-75
2021/08/27 02:06:04;;;;;;;2.55;1.05;;;12.50;92.40;;;;;;6314116;22;20241;-78
2021/08/27 02:08:33;;;;;;;7.13;1.33;;;12.50;92.70;;;;;;6312648;22;20075;-78
2021/08/27 02:11:04;;;;;;;4.22;1.20;;;12.50;92.90;;;;;;6315882;22;20019;-77
2021/08/27 02:13:32;;;;;;;7.00;1.67;;;12.50;92.90;;;;;;6314168;22;20019;-78
2021/08/27 02:16:01;;;;;;;13.02;1.88;;;12.50;93.10;;;;;;6315654;22;20104;-77
2021/08/27 02:18:32;;;;;;;11.30;2.05;;;12.50;93.10;;;;;;6314817;22;20019;-77
2021/08/27 02:21:01;;;;;;;9.70;2.42;;;12.50;93.20;;;;;;6287544;22;20023;-79
2021/08/27 02:23:30;;;;;;;14.77;1.80;;;12.50;93.40;;;;;;6283140;22;20039;-76
2021/08/27 02:25:58;;;;;;;5.43;1.75;;;12.50;93.40;;;;;;6287939;22;20023;-78
2021/08/27 02:28:29;;;;;;;3.72;1.40;;;12.60;93.30;;;;;;6316143;22;20027;-78
2021/08/27 02:30:58;;;;;;;4.68;1.70;;;12.50;93.20;;;;;;6316834;22;20029;-77
2021/08/27 02:33:31;;;;;;;7.30;2.05;;;12.60;93.20;;;;;;6316269;22;20027;-78
2021/08/27 02:36:01;;;;;;;6.35;2.17;;;12.60;93.20;;;;;;6316200;22;20215;-76
2021/08/27 02:38:33;;;;;;;5.05;2.00;;;12.70;93.20;;;;;;6288013;22;20027;-79
2021/08/27 02:41:05;;;;;;;3.83;1.75;;;12.80;93.00;;;;;;6288083;22;20037;-77
2021/08/27 02:43:35;;;;;;;4.53;1.50;;;12.90;92.80;;;;;;6308583;22;20050;-75
2021/08/27 02:46:03;;;;;;;14.98;1.88;;;12.90;92.70;;;;;;6285059;22;20353;-77
2021/08/27 02:48:30;;;;;;;3.38;1.70;;;12.80;92.30;;;;;;6281025;22;20078;-77
2021/08/27 02:51:01;;;;;;;13.40;1.80;;;12.90;92.30;;;;;;6281998;22;20024;-78
2021/08/27 02:53:41;;;;;;;9.75;1.88;;;12.80;92.10;;;;;;6282314;22;20034;-77
2021/08/27 02:56:14;;;;;;;2.92;1.40;;;12.80;92.20;;;;;;6283174;22;20074;-76
2021/08/27 02:58:47;;;;;;;15.70;1.52;;;12.70;92.10;;;;;;6280186;22;20088;-77
2021/08/27 03:01:19;;;;;;;6.30;1.48;;;12.60;92.30;;;;;;6279262;22;20095;-79
2021/08/27 03:04:06;;;;;;;1.90;1.00;;;12.50;92.40;;;;;;6282012;22;20028;-78
2021/08/27 03:06:41;;;;;;;3.80;1.45;;;12.30;92.70;;;;;;6282776;22;20031;-76
2021/08/27 03:09:11;;;;;;;5.68;1.38;;;12.20;92.80;;;;;;6281359;22;20024;-77
2021/08/27 03:11:48;;;;;;;3.53;1.65;;;12.20;92.90;;;;;;6282029;22;20083;-77
2021/08/27 03:14:26;;;;;;;3.83;1.77;;;12.20;93.00;;;;;;6281085;22;20035;-76
2021/08/27 03:16:54;;;;;;;3.80;1.95;;;12.20;92.80;;;;;;6281171;22;20028;-78
2021/08/27 03:19:26;;;;;;;5.25;1.20;;;12.30;92.70;;;;;;6281386;22;20023;-75
2021/08/27 03:22:00;;;;;;;4.75;1.73;;;12.40;92.60;;;;;;6279397;22;20023;-76
2021/08/27 03:24:34;;;;;;;7.00;2.05;;;12.40;92.50;;;;;;6283205;22;20027;-75
2021/08/27 03:27:06;;;;;;;5.65;1.90;;;12.40;92.40;;;;;;6283265;22;20036;-77
2021/08/27 03:29:41;;;;;;;4.55;1.50;;;12.50;92.50;;;;;;6279510;22;20023;-76
2021/08/27 03:32:10;;;;;;;3.80;1.70;;;12.40;92.00;;;;;;6279157;22;20023;-76
2021/08/27 03:34:44;;;;;;;5.63;1.65;;;12.40;92.10;;;;;;6279447;22;20015;-76
2021/08/27 03:37:13;;;;;;;7.70;1.73;;;12.50;92.20;;;;;;6282706;22;20090;-77
2021/08/27 03:39:42;;;;;;;5.68;1.95;;;12.40;92.20;;;;;;6278355;22;20215;-78
2021/08/27 03:42:10;;;;;;;4.03;1.75;;;12.40;92.60;;;;;;6285575;22;20026;-77
2021/08/27 03:44:42;;;;;;;8.85;1.98;;;12.50;92.60;;;;;;6284325;22;20246;-75
2021/08/27 03:47:12;;;;;;;4.00;1.80;;;12.50;92.40;;;;;;6310697;22;20207;-76
2021/08/27 03:49:40;;;;;;;3.28;1.45;;;12.40;92.10;;;;;;6309195;22;20023;-76
2021/08/27 03:52:09;;;;;;;2.97;1.70;;;12.50;92.40;;;;;;6282462;22;20196;-76
2021/08/27 03:54:40;;;;;;;3.60;1.35;;;12.40;92.10;;;;;;6309725;22;20029;-76
2021/08/27 03:57:09;;;;;;;3.70;1.90;;;12.40;91.90;;;;;;6311485;22;20030;-77
2021/08/27 03:59:40;;;;;;;2.85;1.27;;;12.40;92.10;;;;;;6308594;22;20035;-76
2021/08/27 04:02:11;;;;;;;3.50;1.42;;;12.40;91.70;;;;;;6302348;22;20050;-76
2021/08/27 04:04:39;;;;;;;5.07;2.03;;;12.40;91.70;;;;;;6278158;22;20031;-78
2021/08/27 04:07:07;;;;;;;4.85;1.77;;;12.50;91.90;;;;;;6283448;22;20027;-75
2021/08/27 04:09:36;;;;;;;5.93;1.83;;;12.60;91.70;;;;;;6278826;22;20095;-76
2021/08/27 04:12:06;;;;;;;4.43;1.60;;;12.60;91.40;;;;;;6311496;22;20062;-77
2021/08/27 04:14:34;;;;;;;4.18;1.48;;;12.60;91.30;;;;;;6285362;22;20038;-76
2021/08/27 04:17:06;;;;;;;3.85;1.65;;;12.60;91.30;;;;;;6313223;22;20096;-76
2021/08/27 04:19:36;;;;;;;6.25;1.52;;;12.60;91.50;;;;;;6309741;22;20027;-78
2021/08/27 04:22:03;;;;;;;5.33;2.10;;;12.50;91.50;;;;;;6312788;22;20050;-78
2021/08/27 04:24:34;;;;;;;5.63;2.20;;;12.60;91.70;;;;;;6310792;22;20080;-76
2021/08/27 04:27:01;;;;;;;3.25;1.58;;;12.60;91.60;;;;;;6314228;22;20023;-79
2021/08/27 04:29:29;;;;;;;4.32;1.90;;;12.50;91.10;;;;;;6285610;22;20090;-75
2021/08/27 04:31:57;;;;;;;4.38;1.45;;;12.60;91.40;;;;;;6312661;22;20038;-78
2021/08/27 04:34:26;;;;;;;4.22;1.85;;;12.60;91.40;;;;;;6286864;22;20336;-76
2021/08/27 04:36:53;;;;;;;4.30;1.50;;;12.60;91.40;;;;;;6313744;22;20218;-76
2021/08/27 04:39:24;;;;;;;2.55;1.30;;;12.50;91.40;;;;;;6308628;22;20092;-76
2021/08/27 04:41:51;;;;;;;;;;;12.50;91.40;;;;;;6311210;22;20019;-76
2021/08/27 04:44:18;;;;;;;4.97;1.60;;;12.50;91.20;;;;;;6281543;22;20131;-77
2021/08/27 04:46:46;;;;;;;3.58;1.73;;;12.60;91.10;;;;;;6311870;22;20322;-77
2021/08/27 04:49:13;;;;;;;3.60;1.58;;;12.60;91.20;;;;;;6309286;22;20079;-77
2021/08/27 04:51:42;;;;;;;3.20;1.48;;;12.60;91.20;;;;;;6277680;22;20031;-78
2021/08/27 04:54:10;;;;;;;4.65;1.70;;;12.70;91.30;;;;;;6308716;22;20118;-76
2021/08/27 04:56:39;;;;;;;4.55;1.67;;;12.70;91.00;;;;;;6309134;22;20114;-76
2021/08/27 04:59:07;;;;;;;3.35;1.35;;;12.70;91.00;;;;;;6285592;22;20210;-77
2021/08/27 05:01:34;;;;;;;4.05;1.50;;;12.70;91.00;;;;;;6304748;22;20149;-76
2021/08/27 05:04:02;;;;;;;3.25;1.23;;;12.70;90.70;;;;;;6311557;22;20030;-76
2021/08/27 05:06:29;;;;;;;2.58;1.33;;;12.70;90.80;;;;;;6309732;22;20034;-76
2021/08/27 05:08:58;;;;;;;4.78;1.50;;;12.80;90.60;;;;;;6312181;22;20026;-79
2021/08/27 05:11:25;;;;;;;2.17;1.15;;;12.80;90.60;;;;;;6309620;22;20191;-76
2021/08/27 05:13:53;;;;;;;4.88;1.25;;;12.80;90.50;;;;;;6309837;22;20080;-78
2021/08/27 05:16:21;;;;;;;3.20;1.52;;;12.80;90.40;;;;;;6281758;22;20027;-75
2021/08/27 05:18:48;;;;;;;3.85;0.82;;;12.70;90.40;;;;;;6308169;22;20030;-76
2021/08/27 05:21:16;;;;;;;5.25;2.38;;;12.80;90.60;;;;;;6308470;22;20019;-78
2021/08/27 05:23:44;;;;;;;9.07;4.28;;;12.80;90.50;;;;;;6283840;22;20372;-77
2021/08/27 05:26:13;;;;;;;9.32;3.50;;;12.80;89.90;;;;;;6310298;22;20027;-77
2021/08/27 05:28:43;;;;;;;9.93;3.80;;;12.80;90.00;;;;;;6309419;22;20046;-76
2021/08/27 05:31:15;;;;;;;5.38;3.05;;;12.90;90.30;;;;;;6308950;22;20081;-75
2021/08/27 05:33:42;;;;;;;4.70;2.05;;;12.90;90.30;;;;;;6309181;22;20049;-76
2021/08/27 05:36:10;;;;;;;4.88;2.00;;;13.00;90.50;;;;;;6309886;22;20023;-77
2021/08/27 05:38:38;;;;;;;8.07;2.67;;;13.00;89.30;;;;;;6284521;22;20188;-76
2021/08/27 05:41:06;;;;;;;2.88;1.48;;;13.10;89.90;;;;;;6282410;22;20093;-76
2021/08/27 05:43:35;;;;;;;3.17;1.30;;;13.10;89.30;;;;;;6308571;22;20241;-76
2021/08/27 05:46:03;;;;;;;6.45;1.83;;;13.00;89.60;;;;;;6311115;22;20035;-76
2021/08/27 05:48:31;;;;;;;4.53;1.67;;;13.10;89.80;;;;;;6310618;22;20401;-77
2021/08/27 05:50:59;;;;;;;3.58;1.75;;;13.10;89.20;;;;;;6316128;22;20039;-76
2021/08/27 05:53:26;;;;;;;4.85;1.77;;;13.10;89.20;;;;;;6284839;22;20027;-75
2021/08/27 05:55:54;;;;;;;3.92;1.77;;;13.10;88.90;;;;;;6310152;22;20047;-77
2021/08/27 05:58:22;;;;;;;2.92;1.52;;;13.20;88.70;;;;;;6311502;22;20219;-76
2021/08/27 06:00:51;;;;;;;3.60;1.75;;;13.30;89.00;;;;;;6307618;22;20042;-74
2021/08/27 06:03:22;;;;;;;2.60;1.52;;;13.40;88.80;;;;;;6283794;22;20034;-76
2021/08/27 06:05:49;;;;;;;5.07;2.03;;;13.40;88.50;;;;;;6312654;22;20074;-76
2021/08/27 06:08:16;;;;;;;4.15;1.55;;;13.40;88.70;;;;;;6312701;22;20027;-75
2021/08/27 06:10:44;;;;;;;3.13;1.42;;;13.40;88.80;;;;;;6284911;22;20023;-77
2021/08/27 06:13:11;;;;;;;5.82;1.67;;;13.40;87.90;;;;;;6310877;22;20031;-75
2021/08/27 06:15:42;;;;;;;5.20;1.50;;;13.40;88.20;;;;;;6311948;22;20030;-79
2021/08/27 06:18:14;;;;;;;4.78;1.70;;;13.60;88.60;;;;;;6311318;22;20015;-76
2021/08/27 06:20:41;;;;;;;2.83;1.48;;;13.70;87.30;;;;;;6311404;22;20027;-76
2021/08/27 06:23:11;;;;;;;8.43;2.33;;;13.70;87.00;;;;;;6313034;22;20250;-76
2021/08/27 06:25:39;;;;;;;4.90;1.52;;;13.70;86.80;;;;;;6282861;22;20023;-76
2021/08/27 06:28:07;;;;;;;3.33;1.20;;;14.00;86.70;;;;;;6309490;22;20022;-78
2021/08/27 06:30:35;;;;;;;4.45;1.40;;;14.00;86.00;;;;;;6285060;22;20022;-76
2021/08/27 06:33:02;;;;;;;3.65;1.60;;;14.00;86.50;;;;;;6311741;22;20023;-76
2021/08/27 06:35:32;;;;;;;2.50;1.60;;;14.20;85.20;;;;;;6312456;22;20224;-75
2021/08/27 06:40:48;;;;;;;3.55;1.42;;;14.50;84.10;;;;;;6287177;22;20256;-77
2021/08/27 06:43:17;;;;;;;4.90;1.58;;;14.60;84.00;;;;;;6287707;22;20041;-76
2021/08/27 06:45:45;;;;;;;3.25;1.13;;;14.60;83.50;;;;;;6287102;22;20369;-77
2021/08/27 06:48:12;;;;;;;3.97;1.15;;;14.60;83.50;;;;;;6310870;22;20284;-75
2021/08/27 06:50:44;;;;;;;2.55;1.02;;;14.60;83.20;;;;;;6310663;22;20027;-77
2021/08/27 06:53:14;;;;;;;7.57;1.83;;;14.70;83.50;;;;;;6284045;22;20027;-76
2021/08/27 06:55:42;;;;;;;2.25;1.40;;;14.60;83.20;;;;;;6314032;22;20027;-78
2021/08/27 06:58:13;;;;;;;3.00;1.20;;;14.70;82.90;;;;;;6310681;22;20027;-76
2021/08/27 07:00:41;;;;;;;4.32;1.60;;;14.80;82.90;;;;;;6307099;22;20304;-77
2021/08/27 07:03:08;;;;;;;2.83;1.35;;;14.90;82.30;;;;;;6311289;22;20065;-77
2021/08/27 07:05:36;;;;;;;4.05;1.50;;;14.70;82.30;;;;;;6312772;22;20311;-75
2021/08/27 07:08:07;;;;;;;5.55;1.30;;;14.80;82.30;;;;;;6310609;22;20027;-78
2021/08/27 07:10:37;;;;;;;7.75;1.70;;;14.80;82.40;;;;;;6310141;22;20027;-77
2021/08/27 07:13:07;;;;;;;;;;;14.90;82.30;;;;;;6285042;22;20092;-77
2021/08/27 07:15:37;;;;;;;4.18;0.98;;;14.80;81.60;;;;;;6310794;22;19929;-76
2021/08/27 07:18:08;;;;;;;3.70;1.10;;;14.90;82.30;;;;;;6284922;22;20026;-78
2021/08/27 07:20:37;;;;;;;4.07;0.98;;;15.10;81.70;;;;;;6282938;22;20031;-77
2021/08/27 07:23:11;;;;;;;3.17;1.00;;;15.00;81.90;;;;;;6285201;22;20029;-77
2021/08/27 07:25:39;;;;;;;2.35;1.17;;;15.00;81.60;;;;;;6284485;22;20399;-76
2021/08/27 07:28:07;;;;;;;3.53;1.23;;;14.80;81.20;;;;;;6286231;22;20023;-76
2021/08/27 07:30:35;;;;;;;3.90;0.98;;;14.80;81.90;;;;;;6284262;22;20027;-76
2021/08/27 07:33:03;;;;;;;2.75;1.15;;;14.90;82.10;;;;;;6313370;22;20022;-76
2021/08/27 07:35:59;;;;;;;2.95;1.02;;;15.10;81.60;;;;;;6311216;22;20273;-76
2021/08/27 07:38:42;;;;;;;3.35;1.20;;;15.30;81.20;;;;;;6289146;22;20023;-76
2021/08/27 07:41:10;;;;;;;4.35;1.30;;;15.60;80.10;;;;;;6313600;22;20342;-80
2021/08/27 07:43:37;;;;;;;3.60;1.00;;;15.90;79.40;;;;;;6312398;22;20235;-78
2021/08/27 07:46:09;;;;;;;2.33;1.13;;;15.90;77.90;;;;;;6311180;22;20022;-77
2021/08/27 07:48:36;;;;;;;4.60;1.13;;;16.00;78.20;;;;;;6311371;22;20034;-75
2021/08/27 07:51:05;;;;;;;3.42;1.60;;;16.10;79.20;;;;;;6310593;22;20046;-78
2021/08/27 07:53:33;;;;;;;4.28;1.65;;;16.20;77.40;;;;;;6284964;22;20210;-77
2021/08/27 07:56:02;;;;;;;3.35;1.45;;;16.00;78.00;;;;;;6313242;22;20015;-76
2021/08/27 07:58:29;;;;;;;4.35;1.40;;;15.80;77.20;;;;;;6311955;22;20443;-77
2021/08/27 08:00:57;;;;;;;2.05;1.05;;;15.70;78.90;;;;;;6277399;22;20069;-77
2021/08/27 08:03:25;;;;;;;5.22;1.52;;;15.80;79.00;;;;;;6287137;22;20023;-77
2021/08/27 08:05:53;;;;;;;5.63;1.70;;;15.80;78.30;;;;;;6318422;22;20327;-78
2021/08/27 08:08:26;;;;;;;4.55;1.50;;;15.70;77.40;;;;;;6319425;22;20030;-77
2021/08/27 08:10:54;;;;;;;5.05;1.17;;;15.90;78.30;;;;;;6310376;22;20023;-76
2021/08/27 08:13:25;;;;;;;4.70;1.48;;;16.10;77.80;;;;;;6268481;22;20039;-77
2021/08/27 08:15:53;;;;;;;2.58;1.10;;;16.30;77.50;;;;;;6311413;22;20019;-76
2021/08/27 08:18:21;;;;;;;3.70;1.20;;;16.30;77.10;;;;;;6285595;22;20026;-77
2021/08/27 08:20:49;;;;;;;3.95;1.45;;;16.20;77.20;;;;;;6310624;22;20053;-76
2021/08/27 08:23:16;;;;;;;4.78;1.40;;;16.30;76.50;;;;;;6283219;22;20027;-77
2021/08/27 08:25:44;;;;;;;5.25;1.77;;;16.50;76.80;;;;;;6286490;22;20019;-78
2021/08/27 08:28:13;;;;;;;3.08;1.13;;;16.40;76.20;;;;;;6309567;22;20402;-77
2021/08/27 08:30:43;;;;;;;4.32;1.60;;;16.50;76.70;;;;;;6281951;22;20253;-76
2021/08/27 08:33:11;;;;;;;8.57;1.67;;;16.60;76.10;;;;;;6308679;22;20316;-77
2021/08/27 08:35:39;;;;;;;3.40;1.52;;;16.50;77.00;;;;;;6283297;22;20345;-79
2021/08/27 08:38:10;;;;;;;2.90;1.60;;;16.30;76.80;;;;;;6309178;22;20079;-77
2021/08/27 08:40:40;;;;;;;4.88;1.58;;;16.40;76.70;;;;;;6281333;22;20041;-79
2021/08/27 08:43:08;;;;;;;5.68;1.30;;;16.20;77.60;;;;;;6309933;22;20066;-78
2021/08/27 08:45:41;;;;;;;8.65;1.50;;;16.60;76.80;;;;;;6311446;22;21256;-78
2021/08/27 08:48:13;;;;;;;6.65;1.33;;;16.60;77.20;;;;;;6313116;22;20027;-77
2021/08/27 08:50:40;;;;;;;6.13;1.30;;;16.80;76.40;;;;;;6309954;22;20039;-77
2021/08/27 08:53:09;;;;;;;3.50;1.40;;;16.90;75.90;;;;;;6309895;22;20065;-77
2021/08/27 08:55:38;;;;;;;7.43;1.50;;;16.90;75.80;;;;;;6306993;22;20022;-77
2021/08/27 08:58:09;;;;;;;4.20;1.33;;;17.20;74.70;;;;;;6312047;22;20030;-77
2021/08/27 09:00:39;;;;;;;9.73;1.92;;;17.30;74.70;;;;;;6278499;22;20023;-79
2021/08/27 09:03:07;;;;;;;4.45;1.55;;;17.20;75.00;;;;;;6311638;22;20050;-78
2021/08/27 09:05:43;;;;;;;2.53;1.40;;;17.10;74.40;;;;;;6303467;22;20019;-77
2021/08/27 09:08:15;;;;;;;5.32;1.20;;;17.40;74.00;;;;;;6286207;22;20049;-78
2021/08/27 09:10:47;;;;;;;4.15;1.50;;;17.70;73.90;;;;;;6310681;22;20425;-77
2021/08/27 09:13:15;;;;;;;5.05;1.48;;;17.40;73.70;;;;;;6312591;22;20347;-76
2021/08/27 09:15:43;;;;;;;2.97;1.20;;;17.80;72.50;;;;;;6310032;22;20038;-77
2021/08/27 09:18:11;;;;;;;4.00;1.25;;;17.70;72.00;;;;;;6285784;22;20015;-76
2021/08/27 09:20:41;;;;;;;2.75;1.30;;;17.80;72.20;;;;;;6314472;22;20064;-77
2021/08/27 09:23:14;;;;;;;2.75;0.98;;;17.80;71.90;;;;;;6284142;22;20058;-75
2021/08/27 09:25:41;;;;;;;4.82;1.90;;;17.60;72.20;;;;;;6247459;22;20043;-76
2021/08/27 09:28:11;;;;;;;2.35;0.98;;;17.70;71.70;;;;;;6313801;22;20414;-77
2021/08/27 09:30:52;;;;;;;2.53;0.95;;;17.80;70.90;;;;;;6286236;22;20030;-78
2021/08/27 09:33:22;;;;;;;5.25;1.23;;;17.80;71.00;;;;;;6312188;22;20049;-76
2021/08/27 09:36:01;;;;;;;1.77;0.85;;;17.60;71.40;;;;;;6313094;22;20027;-77
2021/08/27 09:38:38;;;;;;;1.55;0.82;;;17.80;71.10;;;;;;6286452;22;20031;-79
2021/08/27 09:41:08;;;;;;;5.90;0.88;;;17.80;70.80;;;;;;6314052;22;20023;-78
2021/08/27 09:43:47;;;;;;;2.42;1.13;;;17.60;71.90;;;;;;6311612;22;20349;-76
2021/08/27 09:46:35;;;;;;;2.22;0.90;;;18.00;70.00;;;;;;6314226;22;20026;-77
2021/08/27 09:49:04;;;;;;;4.47;0.82;;;18.00;71.20;;;;;;6285544;22;20051;-77
2021/08/27 09:51:47;;;;;;;2.13;0.93;;;18.30;70.10;;;;;;6312493;22;20023;-76
2021/08/27 09:54:28;;;;;;;2.58;0.70;;;18.40;69.90;;;;;;6284579;22;20403;-77
2021/08/27 09:57:02;;;;;;;2.55;0.57;;;18.70;68.40;;;;;;6312867;22;20083;-76
2021/08/27 09:59:36;;;;;;;3.83;0.85;;;18.70;67.80;;;;;;6309760;22;20326;-77
2021/08/27 10:02:12;;;;;;;3.25;0.70;;;18.40;69.20;;;;;;6305341;22;20235;-76
2021/08/27 10:04:57;;;;;;;2.78;1.15;;;18.50;68.80;;;;;;6251302;22;20023;-77
2021/08/27 10:07:30;;;;;;;1.85;0.70;;;18.10;69.00;;;;;;6279812;22;20027;-78
2021/08/27 10:09:58;;;;;;;2.90;0.60;;;18.30;69.50;;;;;;6282970;22;20241;-77
2021/08/27 10:12:27;;;;;;;1.83;0.80;;;17.90;70.00;;;;;;6281513;22;20082;-76
2021/08/27 10:14:56;;;;;;;1.63;0.77;;;18.20;70.30;;;;;;6282812;22;20046;-76
2021/08/27 10:17:25;;;;;;;1.60;0.70;;;19.00;68.70;;;;;;6282500;22;20031;-76
2021/08/27 10:19:53;;;;;;;4.00;0.80;;;19.60;66.50;;;;;;6309684;22;20064;-77
2021/08/27 10:22:24;;;;;;;1.90;0.85;;;19.80;63.80;;;;;;6309618;22;20272;-76
2021/08/27 10:24:54;;;;;;;2.38;0.85;;;19.40;65.80;;;;;;6281936;22;20027;-79
2021/08/27 10:27:22;;;;;;;3.00;0.80;;;18.80;67.40;;;;;;6282553;22;20019;-76
2021/08/27 10:29:51;;;;;;;4.80;1.17;;;18.40;69.10;;;;;;6284115;22;20049;-76
2021/08/27 10:32:49;;;;;;;2.80;0.80;;;18.70;67.80;;;;;;6310022;22;20069;-76
2021/08/27 10:35:50;;;;;;;3.10;1.00;;;18.90;67.80;;;;;;6309820;22;20095;-76
2021/08/27 10:38:41;;;;;;;1.70;0.68;;;19.00;67.90;;;;;;6310303;22;20076;-77
2021/08/27 10:41:13;;;;;;;2.15;0.73;;;18.60;69.20;;;;;;6312063;22;20049;-77
2021/08/27 10:43:53;;;;;;;1.95;0.80;;;18.10;70.20;;;;;;6310529;22;20031;-77
2021/08/27 10:46:21;;;;;;;5.47;0.75;;;18.00;69.80;;;;;;6284810;22;20039;-77
2021/08/27 10:48:50;;;;;;;4.20;1.10;;;18.10;69.20;;;;;;6285510;22;20022;-78
2021/08/27 10:51:37;;;;;;;1.83;0.80;;;17.90;70.60;;;;;;6284660;22;20185;-78
2021/08/27 10:54:06;;;;;;;2.67;0.85;;;17.90;70.80;;;;;;6310820;22;20237;-76
2021/08/27 10:56:44;;;;;;;4.32;0.82;;;17.70;71.60;;;;;;6310538;22;20027;-76
2021/08/27 10:59:13;;;;;;;2.45;1.02;;;17.60;71.60;;;;;;6286804;22;20287;-76
2021/08/27 11:01:42;;;;;;;2.97;1.08;;;17.70;72.10;;;;;;6306777;22;20071;-76
2021/08/27 11:04:17;;;;;;;2.78;1.08;;;17.60;71.40;;;;;;6313785;22;20015;-76
2021/08/27 11:06:46;;;;;;;0.90;0.50;;;17.60;71.70;;;;;;6287024;22;20282;-76
2021/08/27 11:09:15;;;;;;;2.30;0.85;;;17.90;70.20;;;;;;6271697;22;20082;-77
2021/08/27 11:11:47;;;;;;;1.88;0.73;;;18.30;69.90;;;;;;6315958;22;20062;-77
2021/08/27 11:14:19;;;;;;;1.50;0.65;;;18.30;69.10;;;;;;6288436;22;20019;-77
2021/08/27 11:16:57;;;;;;;2.58;0.80;;;18.30;68.60;;;;;;6287771;22;20199;-76
2021/08/27 11:19:26;;;;;;;3.17;1.00;;;18.20;67.90;;;;;;6289473;22;20011;-76
2021/08/27 11:22:18;;;;;;;5.82;0.60;;;18.10;69.00;;;;;;6316166;22;20023;-78
2021/08/27 11:25:16;;;;;;;3.95;1.45;;;18.20;68.70;;;;;;6313813;22;20027;-76
2021/08/27 11:28:14;;;;;;;1.70;0.70;;;18.10;68.80;;;;;;6314260;22;20027;-76
2021/08/27 11:30:43;;;;;;;3.00;0.85;;;17.80;69.60;;;;;;6287334;22;20027;-77
2021/08/27 11:33:49;;;;;;;3.40;1.90;;;18.20;69.70;;;;;;6285293;22;20089;-77
2021/08/27 11:36:20;;;;;;;3.33;0.90;;;18.40;69.30;;;;;;6284955;22;20183;-77
2021/08/27 11:38:59;;;;;;;2.42;1.08;;;18.10;70.40;;;;;;6289913;22;20035;-77
2021/08/27 11:41:27;;;;;;;3.20;0.85;;;18.00;70.20;;;;;;6289476;22;20230;-76
2021/08/27 11:44:11;;;;;;;1.48;0.73;;;18.10;70.30;;;;;;6315167;22;20064;-77
2021/08/27 11:46:50;;;;;;;3.95;1.17;;;17.90;71.00;;;;;;6314671;22;20015;-76
2021/08/27 11:49:40;;;;;;;2.97;1.60;;;18.10;71.20;;;;;;6315594;22;20034;-77
2021/08/27 11:52:13;;;;;;;2.22;0.95;;;18.50;69.90;;;;;;6302137;22;20019;-77
2021/08/27 11:54:42;;;;;;;2.72;0.88;;;18.70;69.70;;;;;;6308452;22;20318;-76
2021/08/27 11:57:21;;;;;;;0.93;0.63;;;18.60;68.80;;;;;;6309919;22;20187;-80
2021/08/27 11:59:53;;;;;;;4.60;1.00;;;18.60;68.40;;;;;;6309272;22;20030;-76
2021/08/27 12:02:22;;;;;;;2.47;1.00;;;18.70;68.20;;;;;;6303003;22;20015;-75
2021/08/27 12:04:58;;;;;;;1.65;0.80;;;18.70;68.60;;;;;;6314305;22;20030;-76
2021/08/27 12:07:31;;;;;;;2.95;1.23;;;18.60;68.00;;;;;;6310470;22;20327;-78
2021/08/27 12:10:11;;;;;;;2.60;0.95;;;18.40;69.20;;;;;;6286228;22;20023;-78
2021/08/27 12:12:42;;;;;;;2.55;0.90;;;18.40;69.00;;;;;;6283182;22;20023;-77
2021/08/27 12:15:22;;;;;;;2.85;0.90;;;18.30;69.00;;;;;;6309875;22;20027;-76
2021/08/27 12:18:00;;;;;;;1.70;0.80;;;18.20;69.80;;;;;;6285049;22;20071;-76
2021/08/27 12:20:34;;;;;;;3.35;1.00;;;18.20;70.50;;;;;;6307068;22;20027;-74
2021/08/27 12:23:06;;;;;;;;;;;18.10;71.20;;;;;;6282166;22;20015;-75
2021/08/27 12:25:39;;;;;;;3.05;1.13;;;17.90;72.80;;;;;;6309759;22;19934;-76
2021/08/27 12:28:07;;;;;;;2.25;0.95;;;17.60;74.30;;;;;;6312192;22;20015;-75
2021/08/27 12:30:46;;;;;;;2.50;1.35;;;17.40;75.10;;;;;;6288917;22;20470;-75
2021/08/27 12:33:14;;;;;;;2.65;1.30;;;17.10;76.40;;;;;;6288461;22;20019;-75
2021/08/27 12:36:00;;;;;;;3.55;1.63;;;17.10;77.20;;;;;;6315088;22;20031;-76
2021/08/27 12:38:29;;;;;;;4.18;1.80;;;17.40;77.70;;;;;;6312931;22;20049;-76
2021/08/27 12:41:13;;;;;;;3.28;1.00;;;18.00;75.80;;;;;;6312895;22;20031;-76
2021/08/27 12:43:43;;;;;;;3.17;1.40;;;19.40;72.10;;;;;;6287704;22;20205;-75
2021/08/27 12:46:29;;;;;;;4.63;2.28;;;20.00;70.90;;;;;;6291070;22;20030;-75
2021/08/27 12:49:15;;;;;;;4.80;1.60;;;19.50;72.40;;;;;;6316234;22;20031;-74
2021/08/27 12:51:45;;;;;;;6.47;1.58;;;19.10;72.40;;;;;;6290404;22;20084;-76
2021/08/27 12:54:15;;;;;;;3.72;1.20;;;19.00;71.90;;;;;;6290278;22;20338;-74
2021/08/27 12:57:00;;;;;;;6.35;1.17;;;19.40;72.00;;;;;;6289150;22;20026;-75
2021/08/27 12:59:31;;;;;;;2.80;2.22;;;19.10;73.30;;;;;;6288042;22;20078;-75
2021/08/27 13:02:02;;;;;;;5.22;2.40;;;19.00;71.40;;;;;;6308718;22;20258;-76
2021/08/27 13:04:45;;;;;;;2.33;1.23;;;18.50;73.00;;;;;;6314184;22;20012;-76
2021/08/27 13:07:31;;;;;;;4.75;2.05;;;18.10;74.90;;;;;;6316242;22;20383;-75
2021/08/27 13:10:14;;;;;;;4.25;1.50;;;18.20;75.40;;;;;;6317756;22;20039;-75
2021/08/27 13:12:48;;;;;;;3.40;1.13;;;18.20;74.50;;;;;;6313890;22;20099;-78